createdAt,value
2022-12-14T00:00:22.206Z,-0.50
2022-12-14T00:01:31.928Z,-0.48
2022-12-14T00:02:40.966Z,-0.48
2022-12-14T00:03:50.887Z,-0.49
2022-12-14T00:05:00.263Z,-0.50
2022-12-14T00:06:16.120Z,-0.53
2022-12-14T00:07:25.196Z,-0.53
2022-12-14T00:08:38.284Z,-0.50
2022-12-14T00:09:47.988Z,-0.47
2022-12-14T00:10:59.189Z,-0.47
2022-12-14T00:12:09.333Z,-0.48
2022-12-14T00:13:18.555Z,-0.47
2022-12-14T00:14:27.467Z,-0.51
2022-12-14T00:15:38.061Z,-0.52
2022-12-14T00:16:48.545Z,-0.52
2022-12-14T00:17:57.490Z,-0.54
2022-12-14T00:19:07.824Z,-0.55
2022-12-14T00:20:17.951Z,-0.56
2022-12-14T00:21:28.489Z,-0.59
2022-12-14T00:22:37.554Z,-0.57
2022-12-14T00:23:47.709Z,-0.54
2022-12-14T00:24:56.993Z,-0.54
2022-12-14T00:27:31.699Z,-0.46
2022-12-14T00:28:43.663Z,-0.57
2022-12-14T00:29:53.266Z,-0.58
2022-12-14T00:31:01.828Z,-0.57
2022-12-14T00:32:11.609Z,-0.57
2022-12-14T00:33:21.255Z,-0.59
2022-12-14T00:35:47.051Z,-0.50
2022-12-14T00:36:56.521Z,-0.57
2022-12-14T00:38:05.030Z,-0.56
2022-12-14T00:39:14.929Z,-0.54
2022-12-14T00:40:25.696Z,-0.55
2022-12-14T00:41:35.608Z,-0.54
2022-12-14T00:42:45.084Z,-0.55
2022-12-14T00:43:53.839Z,-0.53
2022-12-14T00:45:04.701Z,-0.53
2022-12-14T00:46:13.894Z,-0.49
2022-12-14T00:47:24.042Z,-0.47
2022-12-14T00:48:34.486Z,-0.46
2022-12-14T00:49:43.938Z,-0.47
2022-12-14T00:50:54.186Z,-0.48
2022-12-14T00:52:03.201Z,-0.45
2022-12-14T00:53:11.845Z,-0.42
2022-12-14T00:55:43.632Z,-0.29
2022-12-14T00:56:52.475Z,-0.40
2022-12-14T00:58:00.980Z,-0.41
2022-12-14T00:59:10.106Z,-0.40
2022-12-14T01:00:18.815Z,-0.40
2022-12-14T01:01:30.894Z,-0.38
2022-12-14T01:02:40.674Z,-0.39
2022-12-14T01:03:50.674Z,-0.37
2022-12-14T01:04:59.730Z,-0.36
2022-12-14T01:06:17.321Z,-0.35
2022-12-14T01:07:25.919Z,-0.39
2022-12-14T01:08:37.811Z,-0.38
2022-12-14T01:09:46.762Z,-0.39
2022-12-14T01:10:57.277Z,-0.40
2022-12-14T01:12:08.138Z,-0.40
2022-12-14T01:13:16.830Z,-0.41
2022-12-14T01:14:27.619Z,-0.42
2022-12-14T01:15:37.776Z,-0.41
2022-12-14T01:16:47.870Z,-0.46
2022-12-14T01:17:56.843Z,-0.45
2022-12-14T01:19:07.621Z,-0.46
2022-12-14T01:20:18.173Z,-0.42
2022-12-14T01:21:28.290Z,-0.43
2022-12-14T01:22:38.353Z,-0.43
2022-12-14T01:25:06.791Z,-0.36
2022-12-14T01:26:18.062Z,-0.43
2022-12-14T01:27:26.905Z,-0.44
2022-12-14T01:28:35.835Z,-0.44
2022-12-14T01:29:44.438Z,-0.51
2022-12-14T01:30:54.212Z,-0.53
2022-12-14T01:32:03.243Z,-0.50
2022-12-14T01:33:12.394Z,-0.48
2022-12-14T01:34:22.131Z,-0.44
2022-12-14T01:36:48.940Z,-0.37
2022-12-14T01:37:57.474Z,-0.50
2022-12-14T01:39:10.287Z,-0.50
2022-12-14T01:40:19.310Z,-0.50
2022-12-14T01:42:47.240Z,-0.43
2022-12-14T01:44:02.448Z,-0.52
2022-12-14T01:48:10.232Z,-0.32
2022-12-14T01:49:23.454Z,-0.46
2022-12-14T01:50:37.201Z,-0.48
2022-12-14T01:54:34.745Z,-0.30
2022-12-14T01:55:50.991Z,-0.48
2022-12-14T01:57:04.117Z,-0.45
2022-12-14T04:54:09.070Z,-2.07
2022-12-14T04:55:28.337Z,-2.09
2022-12-14T04:56:41.677Z,-2.00
2022-12-14T04:59:13.808Z,-1.79
2022-12-14T05:00:23.991Z,-1.89
2022-12-14T05:02:12.286Z,-1.89
2022-12-14T05:04:56.910Z,-1.69
2022-12-14T05:06:29.025Z,-1.79
2022-12-14T05:10:48.791Z,-1.65
2022-12-14T05:13:46.276Z,-1.64
2022-12-14T05:15:12.691Z,-1.74
2022-12-14T05:16:24.262Z,-1.72
2022-12-14T05:17:39.409Z,-1.69
2022-12-14T05:18:50.540Z,-1.75
2022-12-14T05:19:59.583Z,-1.77
2022-12-14T05:21:09.405Z,-1.73
2022-12-14T05:22:18.637Z,-1.69
2022-12-14T05:23:29.103Z,-1.64
2022-12-14T05:24:38.505Z,-1.71
2022-12-14T05:25:49.104Z,-1.75
2022-12-14T05:26:58.802Z,-1.70
2022-12-14T05:28:10.614Z,-1.70
2022-12-14T05:29:20.410Z,-1.66
2022-12-14T05:30:30.989Z,-1.62
2022-12-14T05:31:40.131Z,-1.62
2022-12-14T05:32:50.184Z,-1.58
2022-12-14T05:33:58.887Z,-1.51
2022-12-14T05:36:25.676Z,-1.47
2022-12-14T05:38:49.548Z,-1.46
2022-12-14T05:39:58.813Z,-1.59
2022-12-14T05:41:08.510Z,-1.56
2022-12-14T05:42:17.127Z,-1.55
2022-12-14T05:43:26.510Z,-1.57
2022-12-14T05:44:35.356Z,-1.53
2022-12-14T05:45:44.442Z,-1.51
2022-12-14T05:46:53.550Z,-1.54
2022-12-14T05:48:03.173Z,-1.49
2022-12-14T05:50:27.281Z,-1.41
2022-12-14T05:51:35.798Z,-1.48
2022-12-14T05:52:44.841Z,-1.45
2022-12-14T05:53:54.945Z,-1.44
2022-12-14T05:55:05.177Z,-1.42
2022-12-14T05:56:15.857Z,-1.40
2022-12-14T05:57:25.400Z,-1.36
2022-12-14T05:58:35.561Z,-1.74
2022-12-14T05:59:44.599Z,-1.58
2022-12-14T06:00:54.325Z,-1.51
2022-12-14T06:02:03.481Z,-1.57
2022-12-14T06:03:13.595Z,-1.49
2022-12-14T06:04:23.490Z,-1.49
2022-12-14T06:05:32.437Z,-1.42
2022-12-14T06:06:42.168Z,-1.42
2022-12-14T06:07:51.432Z,-1.42
2022-12-14T06:09:01.037Z,-1.45
2022-12-14T06:10:09.594Z,-1.47
2022-12-14T06:11:21.711Z,-1.55
2022-12-14T06:12:30.750Z,-1.54
2022-12-14T06:13:40.709Z,-1.50
2022-12-14T06:14:49.352Z,-1.41
2022-12-14T06:17:31.627Z,-1.29
2022-12-14T06:18:42.737Z,-1.38
2022-12-14T06:19:51.354Z,-1.40
2022-12-14T06:21:00.599Z,-1.37
2022-12-14T06:22:09.430Z,-1.33
2022-12-14T06:23:18.004Z,-1.29
2022-12-14T06:24:27.656Z,-1.23
2022-12-14T06:25:36.636Z,-1.24
2022-12-14T06:26:46.678Z,-1.17
2022-12-14T06:29:15.211Z,-1.12
2022-12-14T06:31:39.595Z,-1.12
2022-12-14T06:32:49.203Z,-1.25
2022-12-14T06:34:00.622Z,-1.24
2022-12-14T06:35:09.628Z,-1.28
2022-12-14T06:36:28.168Z,-1.28
2022-12-14T06:37:36.832Z,-1.28
2022-12-14T06:38:45.878Z,-1.26
2022-12-14T06:39:54.760Z,-1.25
2022-12-14T06:41:07.937Z,-1.21
2022-12-14T06:42:16.498Z,-1.14
2022-12-14T06:43:27.128Z,-1.20
2022-12-14T06:44:37.198Z,-1.16
2022-12-14T06:45:46.599Z,-1.11
2022-12-14T06:46:56.394Z,-1.15
2022-12-14T06:49:21.905Z,-1.04
2022-12-14T06:50:31.651Z,-1.27
2022-12-14T06:51:41.362Z,-1.25
2022-12-14T06:52:51.436Z,-1.24
2022-12-14T06:54:00.088Z,-1.24
2022-12-14T06:55:10.165Z,-1.23
2022-12-14T06:56:21.111Z,-1.29
2022-12-14T06:57:29.670Z,-1.25
2022-12-14T06:58:39.098Z,-1.32
2022-12-14T06:59:48.229Z,-1.31
2022-12-14T07:02:20.471Z,-1.28
2022-12-14T07:03:31.639Z,-1.33
2022-12-14T07:04:41.594Z,-1.25
2022-12-14T07:05:53.916Z,-1.27
2022-12-14T07:07:03.003Z,-1.18
2022-12-14T07:08:11.653Z,-1.10
2022-12-14T07:09:20.570Z,-1.14
2022-12-14T07:10:30.533Z,-1.11
2022-12-14T07:11:39.474Z,-1.05
2022-12-14T07:12:48.399Z,-1.04
2022-12-14T07:15:21.107Z,-0.91
2022-12-14T07:16:29.928Z,-0.97
2022-12-14T07:17:38.968Z,-0.99
2022-12-14T07:18:48.693Z,-0.97
2022-12-14T07:19:58.404Z,-0.91
2022-12-14T07:21:09.732Z,-0.84
2022-12-14T07:22:19.392Z,-0.81
2022-12-14T07:23:31.057Z,-0.86
2022-12-14T07:26:14.863Z,-0.72
2022-12-14T07:27:25.414Z,-0.88
2022-12-14T07:28:36.506Z,-0.80
2022-12-14T07:31:24.653Z,-0.87
2022-12-14T07:33:49.268Z,-0.78
2022-12-14T07:34:58.917Z,-0.96
2022-12-14T07:36:13.474Z,-0.97
2022-12-14T07:37:22.582Z,-1.02
2022-12-14T07:38:32.917Z,-0.96
2022-12-14T07:39:42.103Z,-0.89
2022-12-14T07:42:06.770Z,-0.74
2022-12-14T07:44:30.226Z,-0.75
2022-12-14T07:45:38.808Z,-0.92
2022-12-14T07:46:49.401Z,-0.83
2022-12-14T07:47:58.115Z,-0.88
2022-12-14T07:49:07.335Z,-0.86
2022-12-14T07:50:17.726Z,-0.79
2022-12-14T07:52:45.249Z,-0.53
2022-12-14T07:55:09.565Z,-0.40
2022-12-14T07:56:22.634Z,-0.51
2022-12-14T07:57:31.697Z,-0.52
2022-12-14T07:58:41.544Z,-0.54
2022-12-14T07:59:55.689Z,-0.53
2022-12-14T08:01:14.036Z,-0.52
2022-12-14T08:03:39.821Z,-0.40
2022-12-14T08:04:49.007Z,-0.49
2022-12-14T08:05:58.460Z,-0.49
2022-12-14T08:07:07.401Z,-0.49
2022-12-14T08:08:17.646Z,-0.44
2022-12-14T08:09:26.331Z,-0.42
2022-12-14T08:10:40.127Z,-0.35
2022-12-14T08:11:52.895Z,-0.49
2022-12-14T08:13:03.261Z,-0.44
2022-12-14T08:15:36.535Z,-0.33
2022-12-14T08:16:47.654Z,-0.41
2022-12-14T08:17:56.487Z,-0.36
2022-12-14T08:20:21.635Z,-0.33
2022-12-14T08:21:30.806Z,-0.61
2022-12-14T08:22:40.686Z,-0.65
2022-12-14T08:23:53.009Z,-0.70
2022-12-14T08:25:02.617Z,-0.59
2022-12-14T08:26:12.663Z,-0.48
2022-12-14T08:28:36.653Z,-0.32
2022-12-14T08:29:45.206Z,-0.44
2022-12-14T08:30:55.369Z,-0.42
2022-12-14T08:32:06.702Z,-0.41
2022-12-14T08:33:15.536Z,-0.37
2022-12-14T08:34:24.311Z,-0.35
2022-12-14T08:35:34.614Z,-0.33
2022-12-14T08:36:44.756Z,-0.32
2022-12-14T08:37:53.510Z,-0.31
2022-12-14T08:39:09.031Z,-0.26
2022-12-14T08:40:17.851Z,-0.22
2022-12-14T08:41:28.047Z,-0.22
2022-12-14T08:42:37.016Z,-0.20
2022-12-14T08:43:53.019Z,-0.21
2022-12-14T08:45:01.708Z,-0.22
2022-12-14T08:46:10.940Z,-0.23
2022-12-14T08:47:20.766Z,-0.22
2022-12-14T08:48:30.611Z,-0.25
2022-12-14T08:49:41.009Z,-0.22
2022-12-14T08:50:50.233Z,-0.21
2022-12-14T08:51:59.051Z,-0.22
2022-12-14T08:53:07.971Z,-0.17
2022-12-14T08:55:53.047Z,0.04
2022-12-14T08:57:04.505Z,-0.03
2022-12-14T08:58:13.578Z,0.03
2022-12-14T08:59:52.282Z,-0.15
2022-12-14T09:00:33.558Z,-0.12
2022-12-14T09:01:42.740Z,-0.11
2022-12-14T09:02:52.053Z,-0.19
2022-12-14T09:04:05.375Z,-0.19
2022-12-14T09:05:14.205Z,-0.21
2022-12-14T09:06:28.723Z,-0.36
2022-12-14T09:07:37.661Z,-0.35
2022-12-14T09:08:47.221Z,-0.38
2022-12-14T09:09:58.254Z,-0.35
2022-12-14T09:11:12.024Z,-0.31
2022-12-14T09:12:20.667Z,-0.28
2022-12-14T09:13:30.237Z,-0.28
2022-12-14T09:14:40.613Z,-0.26
2022-12-14T09:17:21.943Z,-0.19
2022-12-14T09:18:32.425Z,-0.45
2022-12-14T09:19:41.610Z,-0.37
2022-12-14T09:20:53.665Z,-0.28
2022-12-14T09:22:02.442Z,-0.26
2022-12-14T09:23:11.313Z,-0.25
2022-12-14T09:24:20.275Z,-0.27
2022-12-14T09:25:29.056Z,-0.24
2022-12-14T09:26:38.115Z,-0.18
2022-12-14T09:27:48.245Z,-0.15
2022-12-14T09:30:15.770Z,0.03
2022-12-14T09:31:27.051Z,-0.07
2022-12-14T09:32:35.633Z,-0.04
2022-12-14T09:33:44.381Z,-0.05
2022-12-14T09:34:52.888Z,-0.01
2022-12-14T09:36:10.767Z,0.05
2022-12-14T09:37:19.284Z,0.10
2022-12-14T09:38:30.400Z,0.16
2022-12-14T09:39:39.119Z,0.13
2022-12-14T09:40:52.193Z,0.18
2022-12-14T09:42:04.894Z,0.19
2022-12-14T09:44:45.227Z,0.19
2022-12-14T09:45:58.698Z,0.05
2022-12-14T09:48:37.514Z,0.30
2022-12-14T09:51:22.026Z,0.37
2022-12-14T09:54:02.092Z,0.36
2022-12-14T09:55:27.438Z,0.30
2022-12-14T09:57:50.858Z,0.29
2022-12-14T09:59:02.415Z,0.29
2022-12-14T10:03:21.489Z,0.36
2022-12-14T10:04:38.600Z,0.27
2022-12-14T10:05:58.792Z,0.38
2022-12-14T10:08:54.417Z,0.19
2022-12-14T10:11:46.163Z,0.41
2022-12-14T10:15:09.248Z,0.41
2022-12-14T10:17:55.624Z,0.43
2022-12-14T10:19:36.004Z,0.30
2022-12-14T10:20:52.785Z,0.33
2022-12-14T10:22:15.161Z,0.34
2022-12-14T10:23:26.107Z,0.32
2022-12-14T10:24:38.870Z,0.41
2022-12-14T10:25:52.094Z,0.44
2022-12-14T10:27:02.963Z,0.49
2022-12-14T10:29:39.654Z,0.68
2022-12-14T10:30:53.530Z,0.63
2022-12-14T10:33:53.563Z,0.84
2022-12-14T15:10:37.012Z,-1.25
2022-12-14T15:11:51.992Z,-1.33
2022-12-14T15:13:07.673Z,-1.26
2022-12-14T15:14:48.288Z,-1.24
2022-12-14T15:15:55.587Z,-1.19
2022-12-14T15:17:22.095Z,-1.22
2022-12-14T15:18:31.990Z,-1.24
2022-12-14T15:19:58.637Z,-1.28
2022-12-14T15:21:15.878Z,-1.30
2022-12-14T15:23:53.317Z,-1.24
2022-12-14T15:26:24.435Z,-1.21
2022-12-14T15:27:36.683Z,-1.30
2022-12-14T15:28:50.535Z,-1.27
2022-12-14T15:31:39.748Z,-1.12
2022-12-14T15:34:17.033Z,-1.08
2022-12-14T15:36:45.624Z,-1.08
2022-12-14T15:39:07.100Z,-1.17
2022-12-14T15:41:35.961Z,-1.05
2022-12-14T15:42:55.539Z,-1.20
2022-12-14T15:45:32.734Z,-1.12
2022-12-14T15:46:42.163Z,-1.21
2022-12-14T15:47:51.109Z,-1.17
2022-12-14T15:50:26.972Z,-0.99
2022-12-14T15:51:39.923Z,-1.11
2022-12-14T15:52:52.230Z,-1.12
2022-12-14T15:54:04.339Z,-1.14
2022-12-14T15:55:35.505Z,-1.13
2022-12-14T15:58:16.406Z,-1.01
2022-12-14T15:59:34.227Z,-1.11
2022-12-14T16:02:26.845Z,-0.95
2022-12-14T16:03:40.392Z,-1.06
2022-12-14T16:04:50.482Z,-1.08
2022-12-14T16:06:00.508Z,-1.06
2022-12-14T16:07:25.466Z,-1.04
2022-12-14T16:08:38.728Z,-1.03
2022-12-14T16:11:12.501Z,-0.97
2022-12-14T16:12:27.322Z,-1.11
2022-12-14T16:15:29.175Z,-1.05
2022-12-14T16:16:38.316Z,-1.17
2022-12-14T16:17:48.292Z,-1.18
2022-12-14T16:19:20.377Z,-1.21
2022-12-14T16:20:19.055Z,-1.25
2022-12-14T16:23:07.296Z,-1.23
2022-12-14T16:26:05.441Z,-1.27
2022-12-14T16:28:36.402Z,-1.33
2022-12-14T16:31:14.288Z,-1.38
2022-12-14T16:32:23.521Z,-1.52
2022-12-14T16:33:37.090Z,-1.53
2022-12-14T16:36:33.146Z,-1.56
2022-12-14T16:37:42.657Z,-1.71
2022-12-14T16:39:16.689Z,-1.77
2022-12-14T16:40:38.337Z,-1.82
2022-12-14T16:41:58.647Z,-1.89
2022-12-14T16:43:26.432Z,-1.91
2022-12-14T16:44:40.121Z,-1.96
2022-12-14T16:46:07.708Z,-2.00
2022-12-14T16:47:35.901Z,-1.98
2022-12-14T16:48:50.079Z,-1.95
2022-12-14T16:52:05.794Z,-1.77
2022-12-14T16:57:07.040Z,-1.58
2022-12-14T16:59:48.802Z,-1.62
2022-12-14T17:01:03.260Z,-1.75
2022-12-14T17:02:37.594Z,-1.78
2022-12-14T17:05:19.145Z,-1.74
2022-12-14T17:07:50.342Z,-1.75
2022-12-14T17:09:00.096Z,-1.86
2022-12-14T17:11:32.137Z,-1.74
2022-12-14T17:12:48.636Z,-1.83
2022-12-14T17:15:19.135Z,-1.70
2022-12-14T17:16:28.735Z,-1.81
2022-12-14T17:17:37.555Z,-1.86
2022-12-14T17:20:11.954Z,-1.90
2022-12-14T17:22:50.575Z,-2.04
2022-12-14T17:24:03.784Z,-2.23
2022-12-14T17:25:13.512Z,-2.29
2022-12-14T17:27:41.480Z,-2.30
2022-12-14T17:28:51.607Z,-2.44
2022-12-14T17:30:01.866Z,-2.47
2022-12-14T17:31:20.942Z,-2.49
2022-12-14T17:32:31.665Z,-2.49
2022-12-14T17:34:56.579Z,-2.33
2022-12-14T17:36:08.213Z,-2.43
2022-12-14T17:37:22.460Z,-2.43
2022-12-14T17:39:47.799Z,-2.33
2022-12-14T17:40:56.995Z,-2.42
2022-12-14T17:42:06.405Z,-2.41
2022-12-14T17:43:24.479Z,-2.43
2022-12-14T17:44:33.654Z,-2.43
2022-12-14T17:45:43.533Z,-2.45
2022-12-14T17:46:52.806Z,-2.49
2022-12-14T17:48:01.847Z,-2.51
2022-12-14T17:49:15.175Z,-2.51
2022-12-14T17:51:43.486Z,-2.48
2022-12-14T17:52:52.835Z,-2.61
2022-12-14T17:54:02.538Z,-2.66
2022-12-14T17:55:23.297Z,-2.68
2022-12-14T17:56:32.022Z,-2.71
2022-12-14T17:57:41.695Z,-2.72
2022-12-14T17:58:51.393Z,-2.75
2022-12-14T18:00:19.355Z,-2.76
2022-12-14T18:01:28.668Z,-2.77
2022-12-14T18:02:41.461Z,-2.80
2022-12-14T18:03:50.921Z,-2.84
2022-12-14T18:04:59.670Z,-2.87
2022-12-14T18:06:12.339Z,-2.89
